Time;durP1;ratioP1;P1;durP2;ratioP2;P2;SDS_P1;SDS_P2;PMS_P1;PMS_P2;Temp;Humidity;BMP_temperature;BMP_pressure;BME280_temperature;BME280_humidity;BME280_pressure;Samples;Min_cycle;Max_cycle;Signal;HPM_P1;HPM_P2
2021/05/31 00:01:30;;;;;;;2.53;0.50;;;11.20;99.90;;;10.67;76.47;101129.25;4987968;28;20065;-51
2021/05/31 00:03:56;;;;;;;3.35;1.20;;;11.20;99.90;;;10.67;76.92;101137.06;4970444;28;20088;-53
2021/05/31 00:06:22;;;;;;;1.85;0.82;;;11.20;99.90;;;10.57;77.15;101142.22;4987865;28;20125;-54
2021/05/31 00:08:48;;;;;;;1.45;0.60;;;11.20;99.90;;;10.60;77.40;101141.97;4988013;28;20045;-54
2021/05/31 00:11:14;;;;;;;2.88;0.82;;;11.10;99.90;;;10.64;77.41;101139.94;4987893;28;20038;-55
2021/05/31 00:13:40;;;;;;;2.28;0.88;;;11.20;99.90;;;10.57;77.44;101142.22;4988211;28;20037;-50
2021/05/31 00:16:06;;;;;;;3.15;1.00;;;11.10;99.90;;;10.55;77.48;101138.09;4987960;28;20105;-56
2021/05/31 00:18:32;;;;;;;3.67;0.80;;;11.10;99.90;;;10.55;77.81;101138.91;4988066;28;20046;-49
2021/05/31 00:20:58;;;;;;;1.85;0.60;;;11.10;99.90;;;10.52;77.52;101146.16;4988063;28;20218;-60
2021/05/31 00:23:24;;;;;;;2.63;0.70;;;11.10;99.90;;;10.50;77.71;101138.47;4970320;28;20042;-56
2021/05/31 00:25:50;;;;;;;1.42;0.70;;;11.00;99.90;;;10.45;78.09;101148.44;4988175;28;20047;-55
2021/05/31 00:28:16;;;;;;;1.33;0.73;;;11.00;99.90;;;10.36;78.09;101143.19;4988029;28;20031;-56
2021/05/31 00:30:42;;;;;;;2.25;1.08;;;11.00;99.90;;;10.28;78.58;101149.03;4987642;28;20038;-51
2021/05/31 00:33:09;;;;;;;2.72;0.70;;;10.90;99.90;;;10.25;78.69;101144.91;4987834;28;20115;-50
2021/05/31 00:35:35;;;;;;;2.28;1.08;;;10.80;99.90;;;10.27;78.85;101150.81;4987822;28;20038;-51
2021/05/31 00:38:02;;;;;;;1.88;0.85;;;10.80;99.90;;;10.24;78.88;101143.25;4987668;28;20057;-50
2021/05/31 00:40:29;;;;;;;1.17;0.65;;;10.80;99.90;;;10.29;78.61;101148.09;4987842;28;20084;-50
2021/05/31 00:42:55;;;;;;;1.63;0.88;;;10.80;99.90;;;10.36;77.80;101143.19;4945351;28;1243587;-56
2021/05/31 00:45:22;;;;;;;1.40;0.52;;;10.90;99.90;;;10.33;77.99;101144.28;4988448;28;20097;-55
2021/05/31 00:47:49;;;;;;;2.50;0.80;;;10.90;99.90;;;10.37;78.44;101139.63;4988789;28;20110;-54
2021/05/31 00:50:16;;;;;;;3.78;0.80;;;10.90;99.90;;;10.41;77.91;101146.22;4988473;28;20113;-57
2021/05/31 00:52:42;;;;;;;2.30;0.80;;;10.90;99.90;;;10.36;78.04;101141.41;4988272;28;20037;-57
2021/05/31 00:55:09;;;;;;;1.52;0.73;;;11.00;99.90;;;10.35;78.58;101136.34;4988559;28;20037;-56
2021/05/31 00:57:36;;;;;;;1.65;0.80;;;10.90;99.90;;;10.32;78.36;101134.81;4970767;28;20038;-52
2021/05/31 01:00:06;;;;;;;2.92;1.38;;;10.90;99.90;;;10.34;78.68;101145.09;4970800;28;20109;-55
2021/05/31 01:02:32;;;;;;;8.93;4.18;;;10.90;99.90;;;10.32;78.46;101141.78;4988327;28;20045;-53
2021/05/31 01:04:58;;;;;;;2.95;1.70;;;10.90;99.90;;;10.34;78.56;101138.13;4988145;28;20034;-54
2021/05/31 01:07:44;;;;;;;3.85;1.67;;;10.90;99.90;;;10.34;78.88;101142.50;4988378;28;20026;-52
2021/05/31 01:10:47;;;;;;;2.38;1.15;;;10.90;99.90;;;10.37;79.76;101147.44;4985086;28;20432;-49
2021/05/31 01:13:29;;;;;;;2.33;1.30;;;10.90;99.90;;;10.30;78.84;101140.16;4988173;28;20080;-54
2021/05/31 01:16:16;;;;;;;3.58;1.02;;;10.80;99.90;;;10.48;77.90;101142.97;4988208;28;20058;-52
2021/05/31 01:18:47;;;;;;;4.80;1.15;;;10.90;99.90;;;10.47;77.79;101136.13;5002277;28;20369;-52
2021/05/31 01:21:23;;;;;;;3.05;1.85;;;11.00;99.90;;;10.36;78.39;101133.59;4988160;28;20117;-56
2021/05/31 01:24:20;;;;;;;3.10;1.02;;;10.90;99.90;;;10.39;78.50;101129.91;4988076;28;20042;-52
2021/05/31 01:27:32;;;;;;;3.53;1.52;;;10.90;99.90;;;10.33;78.53;101133.03;4988108;28;20035;-54
2021/05/31 01:30:07;;;;;;;2.45;0.80;;;10.90;99.90;;;10.29;78.04;101133.28;4997472;28;20042;-51
2021/05/31 01:32:46;;;;;;;5.17;1.20;;;10.90;99.90;;;10.25;78.58;101131.88;4992006;28;20124;-53
2021/05/31 01:35:20;;;;;;;1.63;1.02;;;10.80;99.90;;;10.23;78.53;101128.56;4991620;28;20556;-51
2021/05/31 01:37:48;;;;;;;2.38;0.80;;;10.80;99.90;;;10.16;78.80;101132.59;4991556;28;20038;-51
2021/05/31 01:40:15;;;;;;;1.58;0.88;;;10.80;99.90;;;10.19;78.60;101126.31;5006327;28;20034;-51
2021/05/31 01:42:42;;;;;;;6.20;1.08;;;10.70;99.90;;;10.21;78.30;101125.28;4991123;28;20136;-52
2021/05/31 01:45:11;;;;;;;2.53;1.02;;;10.80;99.90;;;10.12;78.98;101127.75;4991394;28;20030;-52
2021/05/31 01:47:39;;;;;;;3.97;1.30;;;10.70;99.90;;;10.07;79.34;101125.53;4973667;28;20030;-53
2021/05/31 01:50:08;;;;;;;1.50;1.10;;;10.70;99.90;;;10.02;79.64;101125.06;5006139;28;20479;-52
2021/05/31 01:52:35;;;;;;;2.53;1.17;;;10.60;99.90;;;9.93;79.67;101131.84;4991193;28;20405;-50
2021/05/31 01:55:01;;;;;;;2.50;0.90;;;10.50;99.90;;;9.89;80.17;101120.06;4991357;28;20042;-52
2021/05/31 01:57:27;;;;;;;1.40;0.90;;;10.50;99.90;;;9.95;79.84;101119.53;4991428;28;20026;-51
2021/05/31 01:59:53;;;;;;;1.90;0.88;;;10.50;99.90;;;10.04;79.75;101120.56;4991792;28;20429;-52
2021/05/31 02:02:20;;;;;;;4.28;1.05;;;10.50;99.90;;;10.07;79.31;101122.09;4991470;28;20034;-52
2021/05/31 02:04:46;;;;;;;1.27;1.00;;;10.60;99.90;;;10.08;79.48;101114.16;4991249;28;20042;-51
2021/05/31 02:07:12;;;;;;;1.80;0.90;;;10.50;99.90;;;9.97;80.01;101116.81;4991233;28;20041;-52
2021/05/31 02:09:38;;;;;;;1.92;1.13;;;10.50;99.90;;;10.00;79.86;101119.16;4991210;28;20034;-50
2021/05/31 02:12:09;;;;;;;1.27;0.90;;;10.50;99.90;;;10.11;78.98;101113.09;4973587;28;20047;-53
2021/05/31 02:14:59;;;;;;;3.05;1.00;;;10.60;99.90;;;10.15;78.77;101117.09;4991095;28;20120;-50
2021/05/31 02:17:45;;;;;;;1.70;1.08;;;10.60;99.90;;;10.10;78.21;101109.66;4990980;28;20046;-52
2021/05/31 02:20:18;;;;;;;2.22;1.08;;;10.60;99.90;;;10.18;77.98;101107.25;4991200;28;20456;-53
2021/05/31 02:22:57;;;;;;;1.73;1.15;;;10.70;99.90;;;10.19;77.37;101106.34;5005929;28;20041;-52
2021/05/31 02:25:26;;;;;;;1.50;0.93;;;10.70;99.90;;;10.18;77.38;101114.25;4991012;28;20058;-50
2021/05/31 02:27:52;;;;;;;1.77;1.20;;;10.70;99.90;;;10.16;77.58;101100.53;4990586;28;20041;-51
2021/05/31 02:30:20;;;;;;;1.83;0.93;;;10.70;99.90;;;10.01;78.72;101100.00;4990633;28;20509;-50
2021/05/31 02:32:55;;;;;;;1.13;0.85;;;10.60;99.90;;;9.97;78.98;101102.03;4990787;28;20038;-50
2021/05/31 02:35:24;;;;;;;2.50;0.97;;;10.50;99.90;;;10.01;78.82;101101.78;4990673;28;20161;-49
2021/05/31 02:37:50;;;;;;;2.40;1.40;;;10.50;99.90;;;9.99;79.18;101099.28;4990441;28;20034;-50
2021/05/31 02:42:55;;;;;;;3.60;1.20;;;10.50;99.90;;;9.90;79.23;101095.69;5033018;23;19926;-50
2021/05/31 02:45:23;;;;;;;3.92;1.02;;;10.50;99.90;;;9.89;79.47;101094.03;4989125;28;20705;-51
2021/05/31 02:47:51;;;;;;;1.40;0.90;;;10.40;99.90;;;9.98;79.47;101087.22;4990651;28;20196;-53
2021/05/31 02:50:18;;;;;;;2.95;1.30;;;10.50;99.90;;;9.97;79.68;101085.56;4990360;28;20532;-50
2021/05/31 02:52:44;;;;;;;1.60;0.93;;;10.50;99.90;;;9.96;79.49;101084.75;4990237;28;20520;-52
2021/05/31 02:55:17;;;;;;;1.65;1.10;;;10.50;99.90;;;9.95;79.59;101082.28;4990081;28;20132;-52
2021/05/31 02:57:44;;;;;;;2.17;0.80;;;10.50;99.90;;;10.13;78.00;101085.16;4972482;28;20034;-51
2021/05/31 03:00:13;;;;;;;1.23;0.80;;;10.60;99.90;;;10.29;76.80;101083.78;4990190;28;20022;-51
2021/05/31 03:02:40;;;;;;;3.00;1.25;;;10.70;99.90;;;10.18;77.45;101085.59;4990138;28;20034;-50
2021/05/31 03:05:09;;;;;;;2.25;0.82;;;10.70;99.90;;;10.44;75.17;101073.03;4990043;28;20041;-51
2021/05/31 03:07:35;;;;;;;1.65;0.82;;;10.90;99.90;;;10.79;72.24;101083.09;4989817;28;20516;-51
2021/05/31 03:10:01;;;;;;;1.23;0.90;;;11.10;99.90;;;10.94;70.86;101077.38;4989876;28;20125;-50
2021/05/31 03:12:27;;;;;;;2.70;1.00;;;11.30;99.90;;;11.07;69.07;101073.72;4989944;28;20038;-52
2021/05/31 03:14:53;;;;;;;3.45;0.60;;;11.40;99.90;;;11.24;67.51;101075.69;4989861;28;20031;-52
2021/05/31 03:17:21;;;;;;;7.72;0.80;;;11.60;99.90;;;11.47;66.31;101073.66;4990078;28;20060;-54
2021/05/31 03:19:48;;;;;;;1.40;0.63;;;11.80;99.90;;;11.48;66.72;101064.84;4989659;28;20113;-51
2021/05/31 03:22:15;;;;;;;1.27;0.70;;;11.90;99.90;;;11.68;65.16;101068.31;4989495;28;20042;-52
2021/05/31 03:24:40;;;;;;;3.72;0.60;;;12.00;99.90;;;11.70;65.41;101064.63;4990009;28;20046;-52
2021/05/31 03:27:07;;;;;;;1.60;0.68;;;12.10;99.90;;;11.60;66.01;101059.38;4989832;28;20046;-55
2021/05/31 03:29:33;;;;;;;1.55;0.70;;;12.10;99.90;;;11.57;66.36;101059.66;4989954;28;20042;-50
2021/05/31 03:32:00;;;;;;;0.95;0.60;;;12.10;99.90;;;11.59;66.06;101059.53;4989468;28;20034;-50
2021/05/31 03:34:27;;;;;;;2.42;0.85;;;12.20;99.90;;;11.43;67.47;101065.25;4989481;28;20022;-51
2021/05/31 03:36:53;;;;;;;1.33;0.80;;;12.00;99.90;;;11.36;67.91;101066.75;4989318;28;20383;-50
2021/05/31 03:39:19;;;;;;;3.08;0.68;;;12.00;99.90;;;11.52;65.88;101063.63;4989279;28;20157;-50
2021/05/31 03:41:45;;;;;;;4.20;0.77;;;12.00;99.90;;;11.76;64.16;101061.47;4987695;28;20069;-50
2021/05/31 03:44:10;;;;;;;2.20;0.60;;;12.20;99.90;;;11.95;63.02;101050.19;4989277;28;20038;-51
2021/05/31 03:46:37;;;;;;;2.85;0.70;;;12.30;99.90;;;12.06;62.56;101059.66;4989369;28;20108;-50
2021/05/31 03:49:04;;;;;;;2.85;0.60;;;12.50;99.90;;;12.11;62.23;101058.28;4989331;28;20030;-50
2021/05/31 03:51:29;;;;;;;2.85;0.80;;;12.60;99.90;;;12.15;61.32;101061.44;4988451;28;20571;-56
2021/05/31 03:53:55;;;;;;;13.05;0.80;;;12.60;99.50;;;12.25;60.43;101063.09;4989424;28;20177;-55
2021/05/31 03:56:21;;;;;;;1.50;0.70;;;12.70;98.20;;;12.38;60.27;101065.38;4989327;28;20052;-52
2021/05/31 03:58:49;;;;;;;2.83;0.60;;;12.80;98.00;;;12.47;59.87;101058.47;4989031;28;20034;-50
2021/05/31 04:01:16;;;;;;;1.85;0.60;;;12.90;97.30;;;12.34;61.51;101061.38;4971361;28;20054;-50
2021/05/31 04:03:43;;;;;;;5.72;2.13;;;13.00;98.70;;;12.14;62.80;101063.22;4988844;28;20037;-53
2021/05/31 04:11:36;;;;;;;4.32;2.00;;;14.00;96.40;;;14.62;56.03;101054.03;4989317;28;20485;-51
2021/05/31 04:14:17;;;;;;;2.83;0.77;;;15.50;93.00;;;16.00;49.77;101049.06;4988902;28;20590;-51
2021/05/31 04:16:52;;;;;;;2.53;0.60;;;17.10;81.40;;;16.75;49.18;101049.56;4971082;28;20516;-51
2021/05/31 04:19:21;;;;;;;2.05;0.70;;;18.30;74.20;;;17.51;48.24;101053.25;4971084;28;20030;-54
2021/05/31 04:21:50;;;;;;;2.10;0.63;;;19.30;69.50;;;18.05;47.09;101043.44;4988797;28;20537;-56
2021/05/31 04:24:17;;;;;;;1.27;0.65;;;20.00;65.80;;;18.58;46.05;101044.22;4988664;28;20030;-55
2021/05/31 04:26:45;;;;;;;1.13;0.60;;;20.70;62.70;;;18.79;44.63;101046.97;4988435;28;20336;-57
2021/05/31 04:29:13;;;;;;;2.15;0.50;;;20.90;59.50;;;18.64;45.50;101048.81;4988717;28;20031;-55
2021/05/31 04:31:40;;;;;;;1.23;0.60;;;21.00;59.50;;;19.18;44.35;101045.78;4988944;28;20437;-56
2021/05/31 04:34:09;;;;;;;2.72;0.68;;;21.80;57.60;;;19.95;42.97;101048.56;4987189;28;20126;-53
2021/05/31 04:36:35;;;;;;;1.52;0.60;;;22.40;56.30;;;20.12;42.25;101046.47;4988924;28;20034;-54
2021/05/31 04:39:06;;;;;;;3.33;0.60;;;23.00;53.80;;;20.48;41.03;101048.97;4988991;28;20304;-55
2021/05/31 04:41:33;;;;;;;3.15;0.50;;;23.40;52.40;;;20.49;41.33;101042.66;4988632;28;20035;-55
2021/05/31 04:43:59;;;;;;;2.35;0.60;;;23.40;51.80;;;19.83;42.15;101044.84;4986746;28;20149;-55
2021/05/31 04:46:25;;;;;;;1.92;0.47;;;22.60;51.90;;;20.13;41.26;101040.97;4988362;28;20049;-57
2021/05/31 04:48:51;;;;;;;1.40;0.45;;;22.70;51.90;;;20.26;40.50;101045.56;4988465;28;20154;-55
2021/05/31 04:51:17;;;;;;;0.85;0.47;;;22.90;51.30;;;19.54;41.66;101038.66;4988341;28;20026;-56
2021/05/31 04:53:43;;;;;;;4.43;0.63;;;22.70;51.00;;;19.54;42.32;101036.03;4988380;28;20034;-50
2021/05/31 04:56:11;;;;;;;1.10;0.45;;;22.50;51.60;;;20.14;41.17;101037.31;4988339;28;20053;-51
2021/05/31 04:58:37;;;;;;;4.75;0.80;;;23.50;50.10;;;20.36;40.85;101035.41;4970630;28;20042;-56
2021/05/31 05:01:03;;;;;;;9.10;0.70;;;23.70;49.40;;;20.52;40.55;101036.97;4988092;28;20157;-55
2021/05/31 05:03:29;;;;;;;1.65;0.50;;;23.70;49.80;;;21.13;39.67;101037.81;4990515;28;20078;-54
2021/05/31 05:05:55;;;;;;;1.05;0.50;;;24.30;49.10;;;20.95;39.54;101032.25;4992157;28;20034;-56
2021/05/31 05:08:21;;;;;;;1.98;0.60;;;24.30;47.90;;;21.58;38.73;101027.53;4974455;28;20038;-55
2021/05/31 05:10:47;;;;;;;1.10;0.60;;;24.80;47.60;;;21.03;39.44;101031.28;4974574;28;20463;-57
2021/05/31 05:13:13;;;;;;;1.15;0.50;;;24.90;46.80;;;22.58;36.72;101031.72;4992474;28;20041;-54
2021/05/31 05:15:39;;;;;;;1.35;0.60;;;25.80;46.40;;;23.21;35.25;101034.50;4992392;28;20453;-53
2021/05/31 05:18:05;;;;;;;1.50;0.40;;;26.40;44.50;;;21.61;38.05;101036.91;4992036;28;20464;-53
2021/05/31 05:20:33;;;;;;;5.43;0.60;;;25.70;44.80;;;21.23;37.76;101029.53;4991937;28;20026;-56
2021/05/31 05:23:00;;;;;;;2.80;0.60;;;25.20;45.20;;;21.38;38.49;101032.81;4991700;28;20034;-55
2021/05/31 05:25:26;;;;;;;5.70;0.88;;;25.30;45.50;;;22.14;37.19;101032.44;4991844;28;20054;-54
2021/05/31 05:27:53;;;;;;;1.02;0.50;;;25.60;45.30;;;22.18;36.91;101037.13;4992102;28;20101;-55
2021/05/31 05:30:24;;;;;;;1.95;0.50;;;26.10;44.30;;;21.53;38.06;101036.09;4992033;28;20045;-56
2021/05/31 05:32:52;;;;;;;1.45;0.55;;;25.20;45.10;;;21.43;38.45;101030.38;4991725;28;20038;-53
2021/05/31 05:35:26;;;;;;;4.05;0.57;;;25.00;45.90;;;22.38;36.66;101025.63;4990137;28;20188;-55
2021/05/31 05:38:10;;;;;;;10.73;0.63;;;26.00;44.40;;;22.63;35.65;101031.91;4974162;28;20146;-50
2021/05/31 05:48:30;;;;;;;;;;;26.50;44.10;;;23.94;32.97;101026.00;4992070;28;20046;-55
2021/05/31 05:51:07;;;;;;;1.45;0.40;;;27.60;41.60;;;24.33;33.31;101030.13;4991420;28;20384;-51
2021/05/31 05:53:37;;;;;;;1.90;0.73;;;28.30;41.50;;;24.28;34.19;101022.81;4991601;28;20042;-52
2021/05/31 05:56:07;;;;;;;4.43;0.50;;;28.50;41.80;;;24.78;33.61;101023.44;4991865;28;20502;-55
2021/05/31 05:58:34;;;;;;;3.15;0.45;;;29.20;41.50;;;25.08;33.47;101025.34;4991326;28;20050;-55
2021/05/31 06:01:02;;;;;;;1.02;0.40;;;29.90;40.80;;;25.32;32.57;101024.38;4991402;28;20123;-54
2021/05/31 06:03:28;;;;;;;1.15;0.65;;;30.30;39.60;;;25.08;32.88;101020.00;4991609;28;20394;-57
2021/05/31 06:05:56;;;;;;;1.58;0.40;;;30.10;39.10;;;25.31;32.04;101022.75;4990985;28;20050;-55
2021/05/31 06:08:22;;;;;;;4.68;0.50;;;29.90;39.30;;;25.73;32.09;101020.88;4991175;28;20038;-55
2021/05/31 06:10:51;;;;;;;2.40;0.50;;;30.20;39.20;;;26.57;31.04;101020.56;4989545;28;20478;-57
2021/05/31 06:13:17;;;;;;;2.35;0.63;;;31.30;38.70;;;27.16;30.46;101022.00;4990337;28;20034;-57
2021/05/31 06:15:43;;;;;;;4.80;0.60;;;32.00;38.20;;;26.88;30.80;101025.50;4973237;28;20034;-54
2021/05/31 06:18:09;;;;;;;5.72;1.20;;;32.00;37.80;;;27.04;30.71;101022.06;4990905;28;20062;-55
2021/05/31 06:20:35;;;;;;;3.65;0.93;;;32.10;37.40;;;26.97;30.68;101020.56;4990774;28;20045;-57
2021/05/31 06:23:08;;;;;;;1.83;0.50;;;32.30;37.10;;;26.51;30.27;101018.84;4990829;28;20073;-57
2021/05/31 06:25:35;;;;;;;1.67;0.50;;;32.00;36.40;;;26.51;30.53;101024.19;4989307;28;20042;-60
2021/05/31 06:28:02;;;;;;;2.08;0.50;;;31.60;36.90;;;27.16;30.24;101019.31;4990935;28;20117;-60
2021/05/31 06:30:29;;;;;;;1.60;0.60;;;32.10;37.30;;;27.07;29.75;101021.56;4972909;28;20046;-60
2021/05/31 06:32:55;;;;;;;2.42;0.50;;;32.40;36.30;;;27.43;29.68;101024.84;4990597;28;20386;-59
2021/05/31 06:35:21;;;;;;;2.22;0.60;;;32.40;36.50;;;26.99;30.04;101021.16;4991161;28;20084;-56
2021/05/31 06:37:48;;;;;;;2.90;0.80;;;32.30;36.30;;;26.69;29.85;101024.84;4972990;28;20572;-59
2021/05/31 06:40:15;;;;;;;5.63;0.90;;;31.90;36.20;;;27.37;29.31;101021.31;4990351;28;20469;-58
2021/05/31 06:42:47;;;;;;;2.55;0.43;;;32.60;36.00;;;27.56;28.61;101013.84;4972519;28;20576;-56
2021/05/31 06:45:23;;;;;;;2.50;0.40;;;33.00;35.70;;;27.94;27.94;101020.31;4989045;28;20105;-55
2021/05/31 06:47:51;;;;;;;5.15;0.73;;;33.10;35.10;;;27.74;28.87;101016.31;4972665;28;20034;-57
2021/05/31 06:50:18;;;;;;;1.52;0.40;;;32.80;35.80;;;28.19;28.39;101017.19;4990155;28;20034;-55
2021/05/31 06:52:46;;;;;;;2.20;0.40;;;33.50;35.10;;;28.19;27.98;101023.38;4990774;28;20071;-55
2021/05/31 06:55:13;;;;;;;2.20;0.47;;;33.50;34.80;;;27.91;28.35;101016.28;4990152;28;20046;-56
2021/05/31 06:57:40;;;;;;;2.05;0.50;;;33.40;34.70;;;28.23;28.11;101021.03;4989986;28;20034;-55
2021/05/31 07:00:11;;;;;;;3.05;0.43;;;33.30;35.10;;;28.50;27.21;101013.06;4972458;28;20078;-55
2021/05/31 07:02:37;;;;;;;1.73;0.43;;;33.60;34.30;;;28.14;26.83;101011.78;4990209;28;20133;-56
2021/05/31 07:05:06;;;;;;;6.03;0.60;;;33.70;33.60;;;27.78;27.42;101018.50;4990131;28;20031;-56
2021/05/31 07:07:32;;;;;;;2.45;0.60;;;33.50;33.80;;;28.06;26.48;101003.09;4989785;28;20040;-56
2021/05/31 07:09:58;;;;;;;2.67;0.40;;;33.50;33.50;;;27.21;26.93;101011.41;4990048;28;20901;-57
2021/05/31 07:12:24;;;;;;;1.48;0.55;;;32.60;33.80;;;26.29;27.79;101002.63;4989954;28;20034;-57
2021/05/31 07:14:51;;;;;;;1.20;0.65;;;30.40;36.20;;;24.47;30.01;100994.34;4989800;28;20039;-56
2021/05/31 07:17:18;;;;;;;0.93;0.40;;;27.50;39.00;;;23.47;32.77;101002.41;4972274;28;20375;-57
2021/05/31 07:19:46;;;;;;;2.10;0.43;;;25.40;42.50;;;22.90;33.90;101002.59;4989888;28;20109;-56
2021/05/31 07:22:20;;;;;;;2.58;0.45;;;24.30;44.70;;;22.28;34.95;100999.53;4990161;28;20037;-56
2021/05/31 07:24:46;;;;;;;2.90;0.50;;;23.50;45.80;;;21.41;37.17;101003.25;4971731;28;20042;-56
2021/05/31 07:27:13;;;;;;;1.52;0.65;;;22.50;47.90;;;21.56;36.78;100999.59;4989343;28;20045;-56
2021/05/31 07:29:39;;;;;;;3.28;0.60;;;22.20;48.90;;;21.61;37.20;101002.44;4989658;28;20045;-58
2021/05/31 07:32:06;;;;;;;7.13;0.73;;;22.20;49.20;;;21.59;36.85;101000.00;4989470;28;20026;-51
2021/05/31 07:34:33;;;;;;;3.55;0.85;;;22.20;49.00;;;21.90;36.33;100998.53;4989358;28;20870;-51
2021/05/31 07:36:59;;;;;;;2.63;0.60;;;22.40;48.90;;;21.82;35.66;101007.53;4989545;28;20082;-52
2021/05/31 07:39:25;;;;;;;3.08;0.70;;;22.40;47.90;;;21.39;36.13;100996.50;4988001;28;20128;-52
2021/05/31 07:41:52;;;;;;;1.83;0.50;;;22.10;47.70;;;21.95;35.74;100990.78;4988917;28;20038;-51
2021/05/31 07:44:18;;;;;;;2.53;0.63;;;22.30;48.80;;;22.12;34.84;100992.84;4989074;28;20030;-50
2021/05/31 07:46:53;;;;;;;;;;;22.60;47.80;;;21.96;34.02;100995.88;5065175;28;20377;-48
2021/05/31 07:49:18;;;;;;;;;;;22.60;46.30;;;21.88;33.25;100985.50;5065258;28;19920;-50
2021/05/31 07:51:46;;;;;;;3.30;0.75;;;22.60;45.60;;;22.18;34.59;100986.72;5063239;28;19916;-51
2021/05/31 07:54:12;;;;;;;1.52;0.50;;;22.70;47.60;;;22.21;34.17;100984.66;5043168;28;20091;-49
2021/05/31 07:56:39;;;;;;;4.00;0.98;;;22.80;46.90;;;22.41;34.51;100988.88;5044347;28;20073;-47
2021/05/31 07:59:05;;;;;;;1.90;0.60;;;22.80;47.60;;;22.46;35.34;100990.91;5044400;28;20041;-48
2021/05/31 08:01:34;;;;;;;3.20;0.50;;;22.70;48.00;;;22.56;34.53;100985.16;5044361;28;20083;-48
2021/05/31 08:04:03;;;;;;;3.70;0.50;;;22.90;47.80;;;22.54;34.18;100981.88;5043040;28;20029;-47
2021/05/31 08:06:29;;;;;;;2.13;0.60;;;23.00;47.40;;;22.64;33.71;100987.56;5042928;28;20030;-48
2021/05/31 08:08:55;;;;;;;4.22;0.77;;;23.00;46.70;;;22.29;33.85;100976.44;5044417;28;20132;-46
2021/05/31 08:11:21;;;;;;;2.22;0.60;;;22.90;46.10;;;22.20;33.76;100980.38;5044409;28;20199;-47
2021/05/31 08:13:47;;;;;;;1.20;0.40;;;22.70;46.50;;;21.99;34.14;100984.88;5042692;28;20026;-48
2021/05/31 08:16:18;;;;;;;1.88;0.60;;;22.50;46.60;;;22.01;33.55;100972.25;5044197;28;20084;-48
2021/05/31 08:18:45;;;;;;;2.47;0.60;;;22.50;45.90;;;22.17;33.32;100971.81;5042889;28;20047;-46
2021/05/31 08:21:11;;;;;;;1.17;0.57;;;22.50;46.30;;;22.13;33.21;100967.13;5044430;28;20045;-52
2021/05/31 08:23:38;;;;;;;1.02;0.50;;;22.70;45.70;;;22.45;33.05;100968.03;5042607;28;20543;-50
2021/05/31 08:26:05;;;;;;;1.88;0.32;;;22.80;46.10;;;21.99;33.26;100968.13;5043948;28;20049;-48
2021/05/31 08:28:31;;;;;;;1.40;0.40;;;22.60;45.50;;;22.00;33.33;100970.59;5042291;28;20033;-50
2021/05/31 08:30:57;;;;;;;1.20;0.40;;;22.40;45.80;;;22.31;32.80;100964.59;5042697;28;20033;-48
2021/05/31 08:33:23;;;;;;;1.48;0.80;;;22.60;45.80;;;22.60;32.68;100959.81;5044080;28;20033;-46
2021/05/31 08:35:49;;;;;;;1.48;0.52;;;22.80;45.60;;;23.21;31.70;100969.88;5043821;28;20029;-47
2021/05/31 08:38:16;;;;;;;1.55;0.52;;;23.40;45.20;;;23.33;31.08;100965.50;5043897;28;20370;-46
2021/05/31 08:40:42;;;;;;;2.35;0.50;;;23.70;44.40;;;23.84;30.49;100962.63;5043674;28;20044;-46
2021/05/31 08:43:08;;;;;;;1.10;0.60;;;24.10;44.10;;;24.11;30.30;100953.31;5042182;28;20129;-46
2021/05/31 08:45:37;;;;;;;1.08;0.60;;;24.40;43.70;;;24.19;29.99;100949.56;5043625;28;20053;-48
2021/05/31 08:48:06;;;;;;;0.77;0.40;;;24.70;42.60;;;24.10;28.79;100945.59;5042253;28;20037;-47
2021/05/31 08:50:34;;;;;;;3.42;0.63;;;24.60;41.20;;;23.70;29.57;100950.47;5043627;28;20507;-47
2021/05/31 08:53:00;;;;;;;1.10;0.47;;;24.20;42.40;;;23.63;29.49;100941.78;5043942;28;20358;-47
2021/05/31 08:55:29;;;;;;;1.02;0.40;;;24.20;41.70;;;23.18;29.96;100947.19;5043502;28;20044;-47
2021/05/31 08:57:57;;;;;;;2.22;0.40;;;24.00;42.30;;;23.29;30.65;100941.19;5032406;28;20026;-51
2021/05/31 09:00:32;;;;;;;1.15;0.40;;;23.90;42.90;;;22.69;31.41;100943.38;5030429;28;20424;-51
2021/05/31 09:03:06;;;;;;;2.88;0.40;;;23.70;43.20;;;22.44;32.05;100942.50;5029450;28;20030;-46
2021/05/31 09:05:32;;;;;;;0.80;0.30;;;23.40;43.80;;;23.59;30.76;100943.25;5030294;28;20033;-47
2021/05/31 09:08:05;;;;;;;1.20;0.47;;;23.70;44.00;;;24.31;29.82;100926.50;5045220;28;20040;-50
2021/05/31 09:10:46;;;;;;;2.25;0.50;;;24.60;43.10;;;23.73;29.76;100936.75;5030210;28;20097;-48
2021/05/31 09:13:32;;;;;;;1.27;0.40;;;24.60;42.00;;;23.66;28.29;100933.34;5029071;28;20471;-48
2021/05/31 09:16:18;;;;;;;0.80;0.40;;;24.40;41.20;;;23.30;27.65;100934.03;5028513;28;20179;-47
2021/05/31 09:19:05;;;;;;;;;;;24.00;40.40;;;22.88;28.12;100930.25;5030653;28;20050;-46
2021/05/31 09:21:33;;;;;;;;;;;23.50;40.20;;;22.98;28.94;100931.41;5030391;28;19917;-46
2021/05/31 09:24:02;;;;;;;0.98;0.50;;;23.50;42.00;;;23.67;29.02;100924.31;5029821;28;19916;-47
2021/05/31 09:26:29;;;;;;;2.25;0.38;;;24.10;41.90;;;23.46;28.75;100923.69;5029642;28;20063;-46
2021/05/31 09:29:02;;;;;;;1.60;0.50;;;24.10;41.40;;;23.97;28.72;100919.13;5029438;28;20448;-47
2021/05/31 09:31:30;;;;;;;2.30;0.40;;;24.10;42.10;;;24.05;28.59;100913.50;5028332;28;20087;-47
2021/05/31 09:34:05;;;;;;;0.75;0.38;;;24.40;41.80;;;23.44;28.61;100911.63;5029636;28;20065;-48
2021/05/31 09:36:34;;;;;;;0.90;0.40;;;24.00;41.50;;;23.59;29.37;100911.31;5028325;28;20041;-49
2021/05/31 09:39:03;;;;;;;1.33;0.50;;;23.90;42.40;;;23.87;28.27;100903.66;5029761;28;20034;-46
2021/05/31 09:41:35;;;;;;;1.13;0.50;;;24.20;41.20;;;24.13;28.25;100908.66;5044695;28;20029;-47
2021/05/31 09:44:04;;;;;;;0.40;0.30;;;24.40;41.60;;;25.13;28.17;100905.50;5029591;28;20029;-46
2021/05/31 09:46:47;;;;;;;1.10;0.40;;;25.30;41.80;;;24.11;28.52;100912.59;5029110;28;20488;-50
2021/05/31 09:49:26;;;;;;;1.20;0.40;;;25.10;40.80;;;24.70;27.43;100908.38;5027980;28;20131;-52
2021/05/31 09:51:54;;;;;;;1.05;0.40;;;25.10;40.40;;;25.16;27.28;100902.38;5044066;28;20041;-49
2021/05/31 09:54:38;;;;;;;0.52;0.30;;;25.50;40.40;;;25.31;26.56;100896.59;5029298;28;20030;-48
2021/05/31 09:57:37;;;;;;;3.20;0.50;;;26.00;39.80;;;24.53;28.46;100907.41;5029427;28;20049;-52
2021/05/31 10:00:27;;;;;;;1.15;0.40;;;25.50;40.50;;;24.73;28.19;100900.75;5028738;28;20029;-53
2021/05/31 10:03:12;;;;;;;1.00;0.40;;;25.30;41.00;;;25.57;27.50;100898.78;5044070;28;20465;-49
2021/05/31 10:05:52;;;;;;;1.60;0.40;;;25.90;40.90;;;26.17;26.82;100908.34;5027287;28;20037;-49
2021/05/31 10:11:07;;;;;;;1.95;0.30;;;26.20;40.20;;;22.84;31.09;100896.13;5028872;28;20037;-50
2021/05/31 10:13:35;;;;;;;1.65;0.52;;;24.60;41.90;;;22.51;32.20;100903.47;5043833;28;20523;-47
2021/05/31 10:16:05;;;;;;;0.82;0.40;;;23.50;43.90;;;23.09;31.13;100898.03;5028709;28;20091;-46
2021/05/31 10:18:31;;;;;;;1.73;0.57;;;23.70;43.70;;;23.43;30.76;100878.91;5028661;28;20029;-48
2021/05/31 10:20:58;;;;;;;2.10;0.50;;;23.80;43.80;;;22.54;32.05;100892.44;5027196;28;20029;-47
2021/05/31 10:23:24;;;;;;;4.10;0.40;;;23.30;43.80;;;22.19;32.08;100884.03;5044028;28;20041;-49
2021/05/31 10:26:01;;;;;;;0.60;0.40;;;23.10;44.00;;;21.96;32.12;100883.66;5028763;28;20034;-46
2021/05/31 10:28:47;;;;;;;1.20;0.38;;;22.90;43.90;;;21.82;32.96;100886.34;5027365;28;20132;-46
2021/05/31 10:31:13;;;;;;;1.38;0.30;;;22.70;44.80;;;22.92;31.85;100883.63;5028452;28;20562;-45
2021/05/31 10:33:40;;;;;;;1.40;0.70;;;23.20;45.10;;;24.26;30.16;100870.47;5028852;28;20370;-46
2021/05/31 10:36:20;;;;;;;10.18;0.47;;;24.10;44.20;;;25.03;28.92;100875.94;5028607;28;20109;-48
2021/05/31 10:38:50;;;;;;;1.27;0.40;;;25.00;42.90;;;25.40;28.35;100869.34;5026869;28;20040;-46
2021/05/31 10:41:25;;;;;;;1.65;0.60;;;25.50;42.40;;;25.65;28.33;100863.78;5026782;28;20037;-48